Time;durP1;ratioP1;P1;durP2;ratioP2;P2;SDS_P1;SDS_P2;PMS_P1;PMS_P2;Temp;Humidity;BMP_temperature;BMP_pressure;BME280_temperature;BME280_humidity;BME280_pressure;Samples;Min_cycle;Max_cycle;Signal;HPM_P1;HPM_P2
2022/05/30 00:00:07;;;;;;;;;;;14.40;61.50;;;;;;5039385;28;19920;-91
2022/05/30 00:02:34;;;;;;;;;;;14.40;61.60;;;;;;5029938;28;19917;-91
2022/05/30 00:05:00;;;;;;;;;;;14.40;61.60;;;;;;5021108;28;19913;-92
2022/05/30 00:07:25;;;;;;;;;;;14.40;61.50;;;;;;5038748;28;20330;-91
2022/05/30 00:09:50;;;;;;;;;;;14.40;61.50;;;;;;5042990;28;19944;-91
2022/05/30 00:12:16;;;;;;;;;;;14.40;61.50;;;;;;5032787;28;19944;-91
2022/05/30 00:14:41;;;;;;;;;;;14.40;61.50;;;;;;5025875;28;19940;-91
2022/05/30 00:17:07;;;;;;;;;;;14.40;61.50;;;;;;5020890;28;20006;-90
2022/05/30 00:19:35;;;;;;;;;;;14.40;61.50;;;;;;5023524;28;19913;-91
2022/05/30 00:22:01;;;;;;;;;;;14.40;61.50;;;;;;5023171;28;19913;-91
2022/05/30 00:24:27;;;;;;;;;;;14.40;61.50;;;;;;5015454;28;19921;-90
2022/05/30 00:26:53;;;;;;;;;;;14.50;61.60;;;;;;5023292;28;20320;-91
2022/05/30 00:29:19;;;;;;;;;;;14.50;61.70;;;;;;5020644;28;19921;-91
2022/05/30 00:31:44;;;;;;;;;;;14.50;61.70;;;;;;5034836;28;19913;-89
2022/05/30 00:34:10;;;;;;;;;;;14.50;61.70;;;;;;5022389;28;19955;-91
2022/05/30 00:36:35;;;;;;;;;;;14.50;61.70;;;;;;5020737;28;20274;-91
2022/05/30 00:39:00;;;;;;;;;;;14.50;61.70;;;;;;5039432;28;19939;-91
2022/05/30 00:41:26;;;;;;;;;;;14.50;61.80;;;;;;5021304;28;19948;-90
2022/05/30 00:43:52;;;;;;;;;;;14.50;61.80;;;;;;5020665;28;19921;-91
2022/05/30 00:46:17;;;;;;;;;;;14.60;61.80;;;;;;5011692;28;20306;-91
2022/05/30 00:48:45;;;;;;;;;;;14.60;61.80;;;;;;5038509;28;19921;-91
2022/05/30 00:51:13;;;;;;;;;;;14.60;61.90;;;;;;5030018;28;19913;-91
2022/05/30 00:53:40;;;;;;;;;;;14.60;61.90;;;;;;5017404;28;19925;-91
2022/05/30 00:56:08;;;;;;;;;;;14.60;61.80;;;;;;5017759;28;19974;-91
2022/05/30 00:58:35;;;;;;;;;;;14.60;61.70;;;;;;5019059;28;19917;-91
2022/05/30 01:01:01;;;;;;;;;;;14.60;61.60;;;;;;5017014;28;19939;-90
2022/05/30 01:08:55;;;;;;;;;;;14.40;61.30;;;;;;5025136;28;19928;-91
2022/05/30 01:11:20;;;;;;;;;;;14.30;61.30;;;;;;5036731;28;20289;-91
2022/05/30 01:13:46;;;;;;;;;;;14.30;61.00;;;;;;5017123;28;19936;-90
2022/05/30 01:16:11;;;;;;;;;;;14.20;60.90;;;;;;5016678;28;19914;-91
2022/05/30 01:18:46;;;;;;;;;;;14.10;60.70;;;;;;5028142;28;19917;-89
2022/05/30 01:21:37;;;;;;;;;;;14.00;60.50;;;;;;5017975;28;19952;-89
2022/05/30 01:24:14;;;;;;;;;;;13.90;60.30;;;;;;5017791;28;19917;-91
2022/05/30 01:26:39;;;;;;;;;;;13.70;60.00;;;;;;5035733;28;19913;-89
2022/05/30 01:29:11;;;;;;;;;;;13.60;59.90;;;;;;5033506;28;19924;-89
2022/05/30 01:31:37;;;;;;;;;;;13.50;59.80;;;;;;5018308;28;19913;-89
2022/05/30 01:34:03;;;;;;;;;;;13.40;59.80;;;;;;5019942;28;20420;-89
2022/05/30 01:36:29;;;;;;;;;;;13.30;59.60;;;;;;5035038;28;19963;-90
2022/05/30 01:38:54;;;;;;;;;;;13.20;59.30;;;;;;5017832;28;20016;-89
2022/05/30 01:41:20;;;;;;;;;;;13.10;59.00;;;;;;5034633;28;19963;-90
2022/05/30 01:43:46;;;;;;;;;;;12.90;58.80;;;;;;5031022;28;20550;-90
2022/05/30 01:46:16;;;;;;;;;;;12.80;58.70;;;;;;5035405;28;19919;-90
2022/05/30 01:48:42;;;;;;;;;;;12.70;58.60;;;;;;5016655;28;19917;-90
2022/05/30 01:51:07;;;;;;;;;;;12.70;58.60;;;;;;5017170;28;19924;-90
2022/05/30 01:53:33;;;;;;;;;;;12.50;58.60;;;;;;5035196;28;19927;-90
2022/05/30 01:55:58;;;;;;;;;;;12.50;58.60;;;;;;5017798;28;19913;-90
2022/05/30 01:58:24;;;;;;;;;;;12.30;58.60;;;;;;5013887;28;20006;-89
2022/05/30 02:00:49;;;;;;;;;;;12.30;58.90;;;;;;5004183;28;19913;-90
2022/05/30 02:03:15;;;;;;;;;;;12.30;59.30;;;;;;5018869;28;19917;-90
2022/05/30 02:05:40;;;;;;;;;;;12.20;59.40;;;;;;5035819;28;20012;-90
2022/05/30 02:08:07;;;;;;;;;;;12.10;59.50;;;;;;5017995;28;19925;-90
2022/05/30 02:10:33;;;;;;;;;;;12.10;59.80;;;;;;5018364;28;19988;-90
2022/05/30 02:12:59;;;;;;;;;;;12.10;60.00;;;;;;5018363;28;19961;-90
2022/05/30 02:15:24;;;;;;;;;;;12.10;60.40;;;;;;5035370;28;19956;-90
2022/05/30 02:17:50;;;;;;;;;;;12.20;60.70;;;;;;5035177;28;19917;-90
2022/05/30 02:20:16;;;;;;;;;;;12.20;60.80;;;;;;5018865;28;19913;-90
2022/05/30 02:22:42;;;;;;;;;;;12.20;60.90;;;;;;5018494;28;19917;-90
2022/05/30 02:25:08;;;;;;;;;;;12.20;61.20;;;;;;5036270;28;19920;-90
2022/05/30 02:27:33;;;;;;;;;;;12.30;61.40;;;;;;5017405;28;19929;-90
2022/05/30 02:29:59;;;;;;;;;;;12.30;61.60;;;;;;5017777;28;20024;-90
2022/05/30 02:32:24;;;;;;;;;;;12.40;61.80;;;;;;5017698;28;19922;-90
2022/05/30 02:37:34;;;;;;;;;;;12.50;62.00;;;;;;5035488;28;19975;-90
2022/05/30 02:39:59;;;;;;;;;;;12.60;62.10;;;;;;5035087;28;19913;-90
2022/05/30 02:42:25;;;;;;;;;;;12.60;62.10;;;;;;5033955;28;19917;-90
2022/05/30 02:44:50;;;;;;;;;;;12.60;62.00;;;;;;5017197;28;19913;-90
2022/05/30 02:47:19;;;;;;;;;;;12.70;62.10;;;;;;5017257;28;19917;-89
2022/05/30 02:49:44;;;;;;;;;;;12.60;62.00;;;;;;5016440;28;19920;-90
2022/05/30 02:52:10;;;;;;;;;;;12.60;61.90;;;;;;5016568;28;19917;-90
2022/05/30 02:54:35;;;;;;;;;;;12.70;61.80;;;;;;5034799;28;19932;-91
2022/05/30 02:57:01;;;;;;;;;;;12.60;61.80;;;;;;5016581;28;19913;-89
2022/05/30 02:59:27;;;;;;;;;;;12.60;61.80;;;;;;5034234;28;19913;-90
2022/05/30 03:01:53;;;;;;;;;;;12.60;61.90;;;;;;5016269;28;19913;-90
2022/05/30 03:04:19;;;;;;;;;;;12.70;61.80;;;;;;5034564;28;19939;-90
2022/05/30 03:06:45;;;;;;;;;;;12.70;61.90;;;;;;5019049;28;19913;-91
2022/05/30 03:09:11;;;;;;;;;;;12.70;62.00;;;;;;5015612;28;19924;-90
2022/05/30 03:11:36;;;;;;;;;;;12.70;62.00;;;;;;5017834;28;19948;-90
2022/05/30 03:14:02;;;;;;;;;;;12.80;62.10;;;;;;5016446;28;19925;-90
2022/05/30 03:16:28;;;;;;;;;;;12.80;62.20;;;;;;5025825;28;19913;-90
2022/05/30 03:18:54;;;;;;;;;;;12.80;62.20;;;;;;5034442;28;19917;-90
2022/05/30 03:21:19;;;;;;;;;;;12.80;62.20;;;;;;5033717;28;19913;-90
2022/05/30 03:23:45;;;;;;;;;;;12.90;62.30;;;;;;5032519;28;19923;-90
2022/05/30 03:26:10;;;;;;;;;;;12.90;62.40;;;;;;5034262;28;19952;-90
2022/05/30 03:28:38;;;;;;;;;;;13.00;62.40;;;;;;5034682;28;19924;-90
2022/05/30 03:31:04;;;;;;;;;;;13.00;62.40;;;;;;5014628;28;19914;-90
2022/05/30 03:33:29;;;;;;;;;;;13.10;62.50;;;;;;5017359;28;20023;-90
2022/05/30 03:35:55;;;;;;;;;;;13.10;62.50;;;;;;5016817;28;20374;-90
2022/05/30 03:38:20;;;;;;;;;;;13.20;62.50;;;;;;5017937;28;20054;-91
2022/05/30 03:40:46;;;;;;;;;;;13.20;62.40;;;;;;5017037;28;19917;-90
2022/05/30 03:43:13;;;;;;;;;;;13.20;62.50;;;;;;5035127;28;19917;-90
2022/05/30 03:45:40;;;;;;;;;;;13.20;62.50;;;;;;5017492;28;19913;-90
2022/05/30 03:48:07;;;;;;;;;;;13.30;62.40;;;;;;5018734;28;19925;-91
2022/05/30 03:50:32;;;;;;;;;;;13.30;62.50;;;;;;5017260;28;19956;-90
2022/05/30 03:53:05;;;;;;;;;;;13.30;62.50;;;;;;5027309;28;19948;-90
2022/05/30 03:55:31;;;;;;;;;;;13.40;62.60;;;;;;5013921;28;20231;-90
2022/05/30 03:57:57;;;;;;;;;;;13.40;62.60;;;;;;5026922;28;19917;-90
2022/05/30 04:00:22;;;;;;;;;;;13.50;62.70;;;;;;5042658;28;19920;-90
2022/05/30 04:02:48;;;;;;;;;;;13.50;62.70;;;;;;5037742;28;19917;-90
2022/05/30 04:05:15;;;;;;;;;;;13.60;62.70;;;;;;5037735;28;20396;-90
2022/05/30 04:07:40;;;;;;;;;;;13.70;62.70;;;;;;5020231;28;19924;-90
2022/05/30 04:10:06;;;;;;;;;;;13.70;62.70;;;;;;5019445;28;19917;-90
2022/05/30 04:12:31;;;;;;;;;;;13.70;62.70;;;;;;5037216;28;20007;-91
2022/05/30 04:14:59;;;;;;;;;;;13.70;62.80;;;;;;5038085;28;19984;-90
2022/05/30 04:17:25;;;;;;;;;;;13.80;62.80;;;;;;5036889;28;20039;-90
2022/05/30 04:19:51;;;;;;;;;;;13.80;62.90;;;;;;5010324;28;19913;-90
2022/05/30 04:22:17;;;;;;;;;;;13.90;62.90;;;;;;5035371;28;19923;-90
2022/05/30 04:24:42;;;;;;;;;;;14.00;63.00;;;;;;5019813;28;19956;-91
2022/05/30 04:27:08;;;;;;;;;;;14.00;63.00;;;;;;5021314;28;19913;-90
2022/05/30 04:29:34;;;;;;;;;;;14.10;63.10;;;;;;5024583;28;19919;-90
2022/05/30 04:32:00;;;;;;;;;;;14.10;63.20;;;;;;5022330;28;19933;-91
2022/05/30 04:34:25;;;;;;;;;;;14.30;63.30;;;;;;5018778;28;19917;-90
2022/05/30 04:36:51;;;;;;;;;;;14.30;63.30;;;;;;5019063;28;19913;-90
2022/05/30 04:39:16;;;;;;;;;;;14.40;63.40;;;;;;5035989;28;20353;-90
2022/05/30 04:41:41;;;;;;;;;;;14.50;63.50;;;;;;5018767;28;20007;-90
2022/05/30 04:44:07;;;;;;;;;;;14.60;63.60;;;;;;5018680;28;19917;-90
2022/05/30 04:46:32;;;;;;;;;;;14.80;63.80;;;;;;5020272;28;20008;-90
2022/05/30 04:49:06;;;;;;;;;;;14.90;63.90;;;;;;5019988;28;20288;-90
2022/05/30 04:51:32;;;;;;;;;;;15.10;64.10;;;;;;5020318;28;20317;-90
2022/05/30 04:53:57;;;;;;;;;;;15.20;64.30;;;;;;5036283;28;19921;-90
2022/05/30 04:56:23;;;;;;;;;;;15.50;64.60;;;;;;5037971;28;19921;-91
2022/05/30 04:58:49;;;;;;;;;;;15.70;64.60;;;;;;5036699;28;19967;-90
2022/05/30 05:01:15;;;;;;;;;;;15.80;64.50;;;;;;5036287;28;19913;-91
2022/05/30 05:03:41;;;;;;;;;;;16.00;64.50;;;;;;5018638;28;19913;-90
2022/05/30 05:06:11;;;;;;;;;;;16.10;64.50;;;;;;5033721;28;19925;-90
2022/05/30 05:08:41;;;;;;;;;;;16.20;64.60;;;;;;5037069;28;19917;-90
2022/05/30 05:11:12;;;;;;;;;;;16.40;64.50;;;;;;5035212;28;19928;-90
2022/05/30 05:13:38;;;;;;;;;;;16.50;64.50;;;;;;5019070;28;19921;-90
2022/05/30 05:16:04;;;;;;;;;;;16.60;64.60;;;;;;5033055;28;19924;-91
2022/05/30 05:18:29;;;;;;;;;;;16.70;64.50;;;;;;5034908;28;20000;-91
2022/05/30 05:20:55;;;;;;;;;;;16.80;64.50;;;;;;5035492;28;20017;-91
2022/05/30 05:23:20;;;;;;;;;;;17.00;64.60;;;;;;5012218;28;19913;-91
2022/05/30 05:25:46;;;;;;;;;;;17.10;64.60;;;;;;5032894;28;20420;-90
2022/05/30 05:28:11;;;;;;;;;;;17.30;64.70;;;;;;5034640;28;19917;-90
2022/05/30 05:30:38;;;;;;;;;;;17.40;64.70;;;;;;5036229;28;19924;-90
2022/05/30 05:33:04;;;;;;;;;;;17.50;64.70;;;;;;5031330;28;19917;-90
2022/05/30 05:35:29;;;;;;;;;;;17.80;64.80;;;;;;5018537;28;19917;-90
2022/05/30 05:37:56;;;;;;;;;;;17.90;64.80;;;;;;5036211;28;19910;-91
2022/05/30 05:40:21;;;;;;;;;;;18.00;64.60;;;;;;5034761;28;20372;-90
2022/05/30 05:42:47;;;;;;;;;;;18.20;64.60;;;;;;5017978;28;19913;-90
2022/05/30 05:45:12;;;;;;;;;;;18.30;64.90;;;;;;5026082;28;20358;-90
2022/05/30 05:47:38;;;;;;;;;;;18.50;65.20;;;;;;5034726;28;19913;-90
2022/05/30 05:50:04;;;;;;;;;;;18.80;65.90;;;;;;5035277;28;19921;-90
2022/05/30 05:52:30;;;;;;;;;;;19.20;66.20;;;;;;5025804;28;19921;-90
2022/05/30 05:54:55;;;;;;;;;;;19.50;66.50;;;;;;5035841;28;19925;-90
2022/05/30 05:57:21;;;;;;;;;;;19.90;66.10;;;;;;5017144;28;19905;-90
2022/05/30 05:59:47;;;;;;;;;;;20.20;65.70;;;;;;5035109;28;19962;-90
2022/05/30 06:02:12;;;;;;;;;;;20.30;65.10;;;;;;5023254;28;20284;-90
2022/05/30 06:04:38;;;;;;;;;;;20.40;63.90;;;;;;5037436;28;19917;-91
2022/05/30 06:07:04;;;;;;;;;;;20.50;62.80;;;;;;5032060;28;20261;-91
2022/05/30 06:09:29;;;;;;;;;;;20.50;62.90;;;;;;5034177;28;19917;-90
2022/05/30 06:11:58;;;;;;;;;;;20.50;63.00;;;;;;5017050;28;19913;-90
2022/05/30 06:14:24;;;;;;;;;;;20.60;62.90;;;;;;5033701;28;19925;-89
2022/05/30 06:16:49;;;;;;;;;;;20.70;62.80;;;;;;5033303;28;20293;-89
2022/05/30 06:19:15;;;;;;;;;;;20.70;63.10;;;;;;5032900;28;19921;-88
2022/05/30 06:21:41;;;;;;;;;;;20.80;62.70;;;;;;5029582;28;19921;-90
2022/05/30 06:24:07;;;;;;;;;;;20.80;62.60;;;;;;5032038;28;19940;-89
2022/05/30 06:26:32;;;;;;;;;;;20.90;62.40;;;;;;5029978;28;19914;-89
2022/05/30 06:28:58;;;;;;;;;;;21.00;62.50;;;;;;5006408;28;19910;-89
2022/05/30 06:31:25;;;;;;;;;;;21.20;62.70;;;;;;5014610;28;19913;-89
2022/05/30 06:33:51;;;;;;;;;;;21.30;63.10;;;;;;5026103;28;19917;-89
2022/05/30 06:36:18;;;;;;;;;;;21.60;64.10;;;;;;5029815;28;19921;-90
2022/05/30 06:38:43;;;;;;;;;;;21.80;64.90;;;;;;5033209;28;19910;-90
2022/05/30 06:41:13;;;;;;;;;;;22.20;64.50;;;;;;5027390;28;19917;-89
2022/05/30 06:43:39;;;;;;;;;;;22.40;62.30;;;;;;5031204;28;19919;-89
2022/05/30 06:46:05;;;;;;;;;;;22.60;62.30;;;;;;5023813;28;19918;-90
2022/05/30 06:48:31;;;;;;;;;;;22.70;62.00;;;;;;5027639;28;19914;-90
2022/05/30 06:50:56;;;;;;;;;;;22.90;62.50;;;;;;5031564;28;20040;-90
2022/05/30 06:53:22;;;;;;;;;;;23.10;63.00;;;;;;5015612;28;19921;-90
2022/05/30 06:55:49;;;;;;;;;;;23.30;63.30;;;;;;5031320;28;19921;-89
2022/05/30 06:58:15;;;;;;;;;;;23.50;63.30;;;;;;5032785;28;19921;-90
2022/05/30 07:00:42;;;;;;;;;;;23.60;62.40;;;;;;5034311;28;20384;-90
2022/05/30 07:03:07;;;;;;;;;;;23.70;61.60;;;;;;5033387;28;19973;-90
2022/05/30 07:05:34;;;;;;;;;;;23.80;62.20;;;;;;5032951;28;20306;-91
2022/05/30 07:08:00;;;;;;;;;;;23.90;61.90;;;;;;5033490;28;20305;-90
2022/05/30 07:10:27;;;;;;;;;;;24.00;62.30;;;;;;5023881;28;19917;-90
2022/05/30 07:12:52;;;;;;;;;;;24.20;62.20;;;;;;5029208;28;19928;-91
2022/05/30 07:15:18;;;;;;;;;;;24.30;61.40;;;;;;5013683;28;19921;-90
2022/05/30 07:17:44;;;;;;;;;;;24.50;61.90;;;;;;5032958;28;19916;-90
2022/05/30 07:20:09;;;;;;;;;;;24.60;60.90;;;;;;5032327;28;20391;-90
2022/05/30 07:22:35;;;;;;;;;;;24.70;61.20;;;;;;5032733;28;20396;-90
2022/05/30 07:25:00;;;;;;;;;;;24.90;61.00;;;;;;5030983;28;19925;-90
2022/05/30 07:27:26;;;;;;;;;;;25.20;61.80;;;;;;5034743;28;19928;-90
2022/05/30 07:29:51;;;;;;;;;;;25.30;60.90;;;;;;5017700;28;19927;-90
2022/05/30 07:32:17;;;;;;;;;;;25.50;59.90;;;;;;5025359;28;20609;-90
2022/05/30 07:34:43;;;;;;;;;;;25.50;58.90;;;;;;5017122;28;19929;-89
2022/05/30 07:37:08;;;;;;;;;;;25.50;57.70;;;;;;5030931;28;19913;-90
2022/05/30 07:39:38;;;;;;;;;;;25.60;59.40;;;;;;5035474;28;19920;-90
2022/05/30 07:42:04;;;;;;;;;;;25.70;58.60;;;;;;5033534;28;20384;-90
2022/05/30 07:44:29;;;;;;;;;;;25.90;60.20;;;;;;5036087;28;19917;-92
2022/05/30 07:46:56;;;;;;;;;;;26.20;60.30;;;;;;5034941;28;19940;-92
2022/05/30 07:49:21;;;;;;;;;;;26.40;59.40;;;;;;5033276;28;20381;-92
2022/05/30 07:51:46;;;;;;;;;;;26.50;59.10;;;;;;5016405;28;19951;-91
2022/05/30 07:54:12;;;;;;;;;;;26.70;58.60;;;;;;5016841;28;19971;-90
2022/05/30 07:56:37;;;;;;;;;;;26.80;59.10;;;;;;5032240;28;20298;-91
2022/05/30 07:59:03;;;;;;;;;;;27.10;58.40;;;;;;5016686;28;19948;-91
2022/05/30 08:01:28;;;;;;;;;;;27.20;57.70;;;;;;5016670;28;19921;-91
2022/05/30 08:03:54;;;;;;;;;;;27.50;58.10;;;;;;5037260;28;19964;-91
2022/05/30 08:06:24;;;;;;;;;;;27.70;57.80;;;;;;5016988;28;19917;-91
2022/05/30 08:08:51;;;;;;;;;;;28.00;56.90;;;;;;5035431;28;20013;-90
2022/05/30 08:11:17;;;;;;;;;;;28.10;55.00;;;;;;5032010;28;19921;-91
2022/05/30 08:13:43;;;;;;;;;;;28.20;55.10;;;;;;5018522;28;19928;-90
2022/05/30 08:16:09;;;;;;;;;;;28.30;54.60;;;;;;5030419;28;19928;-91
2022/05/30 08:18:34;;;;;;;;;;;28.40;54.20;;;;;;5035861;28;19913;-90
2022/05/30 08:21:01;;;;;;;;;;;28.50;53.80;;;;;;5036418;28;20018;-90
2022/05/30 08:23:27;;;;;;;;;;;28.50;50.70;;;;;;5035046;28;20055;-90
2022/05/30 08:25:56;;;;;;;;;;;28.30;47.50;;;;;;5016702;28;20008;-91
2022/05/30 08:28:21;;;;;;;;;;;28.10;48.80;;;;;;5019263;28;19921;-90
2022/05/30 08:30:47;;;;;;;;;;;27.90;45.70;;;;;;5037071;28;19917;-90
2022/05/30 08:33:14;;;;;;;;;;;27.80;47.20;;;;;;5035216;28;20373;-90
2022/05/30 08:35:39;;;;;;;;;;;27.60;42.50;;;;;;5032394;28;20004;-89
2022/05/30 08:38:05;;;;;;;;;;;27.40;44.90;;;;;;5030789;28;19956;-90
2022/05/30 08:43:28;;;;;;;;;;;27.20;46.40;;;;;;5031861;28;20376;-90
2022/05/30 08:45:59;;;;;;;;;;;27.10;45.60;;;;;;5024273;28;19952;-90
2022/05/30 08:48:37;;;;;;;;;;;26.90;42.70;;;;;;5016450;28;19964;-90
2022/05/30 08:51:35;;;;;;;;;;;26.70;42.10;;;;;;5032000;28;19948;-90
2022/05/30 08:54:18;;;;;;;;;;;26.40;43.40;;;;;;5012555;28;19932;-90
2022/05/30 08:56:47;;;;;;;;;;;26.20;44.60;;;;;;5012227;28;20286;-90
2022/05/30 08:59:27;;;;;;;;;;;26.10;46.40;;;;;;5034031;28;19944;-90
2022/05/30 09:02:01;;;;;;;;;;;25.90;45.00;;;;;;5031994;28;19914;-91
2022/05/30 09:04:32;;;;;;;;;;;25.80;44.30;;;;;;5035677;28;19924;-90
2022/05/30 09:07:00;;;;;;;;;;;25.60;45.30;;;;;;5010720;28;20293;-88
2022/05/30 09:09:44;;;;;;;;;;;25.40;45.20;;;;;;5032309;28;19924;-90
2022/05/30 09:12:12;;;;;;;;;;;25.30;45.10;;;;;;5033680;28;19910;-90
2022/05/30 09:14:41;;;;;;;;;;;25.30;44.30;;;;;;5034099;28;19917;-90
2022/05/30 09:17:11;;;;;;;;;;;25.30;44.50;;;;;;5028299;28;19924;-91
2022/05/30 09:19:36;;;;;;;;;;;25.20;44.20;;;;;;5029796;28;19941;-90
2022/05/30 09:22:04;;;;;;;;;;;25.20;44.70;;;;;;5009327;28;19917;-90
2022/05/30 09:24:32;;;;;;;;;;;25.20;45.10;;;;;;5033489;28;19985;-90
2022/05/30 09:26:59;;;;;;;;;;;25.30;45.40;;;;;;5033058;28;19912;-90
2022/05/30 09:29:29;;;;;;;;;;;25.30;43.20;;;;;;5032579;28;19913;-90
2022/05/30 09:32:01;;;;;;;;;;;25.30;44.10;;;;;;5027803;28;19913;-89
2022/05/30 09:34:28;;;;;;;;;;;25.40;42.60;;;;;;5031907;28;19924;-90
2022/05/30 09:36:53;;;;;;;;;;;25.50;42.60;;;;;;5028435;28;19996;-90
2022/05/30 09:39:19;;;;;;;;;;;25.50;42.10;;;;;;5029788;28;19956;-90
2022/05/30 09:41:44;;;;;;;;;;;25.50;40.10;;;;;;5033148;28;19936;-90
2022/05/30 09:44:21;;;;;;;;;;;25.40;38.90;;;;;;5016856;28;19957;-89
2022/05/30 09:46:51;;;;;;;;;;;25.30;39.20;;;;;;5030987;28;19921;-89
2022/05/30 09:49:18;;;;;;;;;;;25.30;40.20;;;;;;5033490;28;19936;-89
2022/05/30 09:51:44;;;;;;;;;;;25.40;39.30;;;;;;5029671;28;19917;-89
2022/05/30 09:54:12;;;;;;;;;;;25.40;40.00;;;;;;5032755;28;19928;-89
2022/05/30 09:56:40;;;;;;;;;;;25.50;40.50;;;;;;5009972;28;20360;-90
2022/05/30 09:59:18;;;;;;;;;;;25.50;40.60;;;;;;5035656;28;19923;-89
2022/05/30 10:01:48;;;;;;;;;;;25.70;39.50;;;;;;5034989;28;19928;-89
2022/05/30 10:04:29;;;;;;;;;;;25.80;39.60;;;;;;5030438;28;19944;-89
2022/05/30 10:07:09;;;;;;;;;;;25.80;39.50;;;;;;5031100;28;20333;-90
2022/05/30 10:09:38;;;;;;;;;;;25.90;39.30;;;;;;5025059;28;20457;-88
2022/05/30 10:12:04;;;;;;;;;;;25.90;39.70;;;;;;5032239;28;19913;-90
2022/05/30 10:14:34;;;;;;;;;;;26.00;39.60;;;;;;5034799;28;19917;-90
2022/05/30 10:17:11;;;;;;;;;;;26.00;39.70;;;;;;5012848;28;19924;-90
2022/05/30 10:19:39;;;;;;;;;;;26.00;39.20;;;;;;5031934;28;19913;-90
2022/05/30 10:28:15;;;;;;;;;;;26.00;38.30;;;;;;5027246;28;19929;-90
2022/05/30 10:30:49;;;;;;;;;;;25.90;37.60;;;;;;5032394;28;19996;-90
2022/05/30 10:33:21;;;;;;;;;;;25.90;36.50;;;;;;5013714;28;19925;-90
2022/05/30 10:35:57;;;;;;;;;;;25.80;37.00;;;;;;5015890;28;20006;-90
2022/05/30 10:38:25;;;;;;;;;;;25.90;37.20;;;;;;5033172;28;20289;-90
2022/05/30 10:41:09;;;;;;;;;;;25.90;37.50;;;;;;5034255;28;19939;-91
2022/05/30 10:43:55;;;;;;;;;;;26.00;37.10;;;;;;5031237;28;19917;-90
2022/05/30 10:46:24;;;;;;;;;;;26.00;36.90;;;;;;5028038;28;19917;-90
2022/05/30 10:48:55;;;;;;;;;;;26.20;36.20;;;;;;5032816;28;19917;-90
2022/05/30 10:51:22;;;;;;;;;;;26.30;36.60;;;;;;5027017;28;20071;-90
2022/05/30 10:53:51;;;;;;;;;;;26.50;36.30;;;;;;5014245;28;20027;-91
2022/05/30 10:56:34;;;;;;;;;;;26.70;36.40;;;;;;5034116;28;19921;-90
2022/05/30 10:59:23;;;;;;;;;;;26.90;35.20;;;;;;5016106;28;20300;-90
2022/05/30 11:02:00;;;;;;;;;;;27.10;35.30;;;;;;5025763;28;19913;-90
2022/05/30 11:04:44;;;;;;;;;;;27.30;35.40;;;;;;5037191;28;19924;-89
2022/05/30 11:07:29;;;;;;;;;;;27.50;35.00;;;;;;5019630;28;20003;-89
2022/05/30 11:09:59;;;;;;;;;;;27.70;33.30;;;;;;5037413;28;19921;-90
2022/05/30 11:12:35;;;;;;;;;;;27.80;33.60;;;;;;5037861;28;19921;-90
2022/05/30 11:15:19;;;;;;;;;;;27.80;32.40;;;;;;5018788;28;20365;-90
2022/05/30 11:17:48;;;;;;;;;;;27.90;32.80;;;;;;5016580;28;19918;-90
2022/05/30 11:20:16;;;;;;;;;;;27.90;31.60;;;;;;5032295;28;19917;-89
2022/05/30 11:22:46;;;;;;;;;;;28.00;31.40;;;;;;5030812;28;19939;-90
2022/05/30 11:25:13;;;;;;;;;;;28.00;30.80;;;;;;5015133;28;20417;-90
2022/05/30 11:27:40;;;;;;;;;;;28.00;30.80;;;;;;5036199;28;19921;-90
2022/05/30 11:30:06;;;;;;;;;;;28.00;31.10;;;;;;5040750;28;19996;-88
2022/05/30 11:32:37;;;;;;;;;;;28.10;29.90;;;;;;5026252;28;20044;-89
2022/05/30 11:35:11;;;;;;;;;;;28.10;29.40;;;;;;5038794;28;20377;-89
2022/05/30 11:37:57;;;;;;;;;;;28.10;29.00;;;;;;5039690;28;19931;-90
2022/05/30 11:40:24;;;;;;;;;;;28.20;29.60;;;;;;5038119;28;19913;-90
2022/05/30 11:43:09;;;;;;;;;;;28.30;29.30;;;;;;5021876;28;19964;-90
2022/05/30 11:45:34;;;;;;;;;;;28.40;29.70;;;;;;5018116;28;19921;-90
2022/05/30 11:48:12;;;;;;;;;;;28.50;28.80;;;;;;5020710;28;20380;-90
2022/05/30 11:50:47;;;;;;;;;;;28.40;28.10;;;;;;5037126;28;19914;-90
2022/05/30 11:53:23;;;;;;;;;;;28.30;29.20;;;;;;5039653;28;19929;-90
2022/05/30 11:55:54;;;;;;;;;;;28.40;29.10;;;;;;5033700;28;19920;-90
2022/05/30 11:58:26;;;;;;;;;;;28.50;29.70;;;;;;5035795;28;19917;-89
2022/05/30 12:00:52;;;;;;;;;;;28.60;29.90;;;;;;5018512;28;19917;-91
2022/05/30 12:03:22;;;;;;;;;;;28.80;29.60;;;;;;5037143;28;19917;-89
2022/05/30 12:06:08;;;;;;;;;;;29.00;30.00;;;;;;5020543;28;19917;-88
2022/05/30 12:08:43;;;;;;;;;;;29.20;29.40;;;;;;5038278;28;19956;-89
2022/05/30 12:11:18;;;;;;;;;;;29.30;27.90;;;;;;5036676;28;19913;-90
2022/05/30 12:13:58;;;;;;;;;;;29.30;27.70;;;;;;5037340;28;19951;-91
2022/05/30 12:16:34;;;;;;;;;;;29.40;27.10;;;;;;5030192;28;19913;-89
2022/05/30 12:24:49;;;;;;;;;;;29.60;26.70;;;;;;5036091;28;19936;-89
2022/05/30 12:27:35;;;;;;;;;;;29.50;25.80;;;;;;5018570;28;19921;-90
2022/05/30 12:30:24;;;;;;;;;;;29.60;26.40;;;;;;5016975;28;20377;-89
2022/05/30 12:32:49;;;;;;;;;;;29.80;25.90;;;;;;5017216;28;20672;-89
2022/05/30 12:35:23;;;;;;;;;;;29.80;25.70;;;;;;5030933;28;19928;-89
2022/05/30 12:37:58;;;;;;;;;;;30.00;25.40;;;;;;5028203;28;19929;-89
2022/05/30 12:40:26;;;;;;;;;;;30.20;25.80;;;;;;5025462;28;19952;-90
2022/05/30 12:42:57;;;;;;;;;;;30.30;25.50;;;;;;5018297;28;19921;-90
2022/05/30 12:45:37;;;;;;;;;;;30.40;25.20;;;;;;5033560;28;19921;-90
2022/05/30 12:48:14;;;;;;;;;;;30.30;24.70;;;;;;5022189;28;19936;-90
2022/05/30 12:50:44;;;;;;;;;;;30.40;25.10;;;;;;5014401;28;20300;-89
2022/05/30 12:53:10;;;;;;;;;;;30.60;25.60;;;;;;5038816;28;19921;-89
2022/05/30 12:55:39;;;;;;;;;;;30.80;25.50;;;;;;5020761;28;19925;-91
2022/05/30 12:58:07;;;;;;;;;;;31.10;24.90;;;;;;5030957;28;19924;-90
2022/05/30 13:00:42;;;;;;;;;;;31.30;24.60;;;;;;5020766;28;19913;-88
2022/05/30 13:03:20;;;;;;;;;;;31.30;24.50;;;;;;5037271;28;19921;-90
2022/05/30 13:06:06;;;;;;;;;;;31.40;24.30;;;;;;5017915;28;20999;-89
2022/05/30 13:08:50;;;;;;;;;;;31.40;24.40;;;;;;5035915;28;19917;-89
2022/05/30 13:11:26;;;;;;;;;;;31.50;24.00;;;;;;5020512;28;20358;-89
2022/05/30 13:13:54;;;;;;;;;;;31.80;24.00;;;;;;5035728;28;21360;-89
2022/05/30 13:16:33;;;;;;;;;;;32.10;23.40;;;;;;5017933;28;19910;-89
2022/05/30 13:19:00;;;;;;;;;;;32.40;23.40;;;;;;5033936;28;20300;-89
2022/05/30 13:21:27;;;;;;;;;;;32.90;22.90;;;;;;5031509;28;19909;-90
2022/05/30 13:23:53;;;;;;;;;;;33.20;21.70;;;;;;5013695;28;19929;-89
2022/05/30 13:26:19;;;;;;;;;;;33.00;20.60;;;;;;5012024;28;19914;-89
2022/05/30 13:28:47;;;;;;;;;;;32.80;21.00;;;;;;5012928;28;20334;-89
2022/05/30 13:31:13;;;;;;;;;;;32.70;21.50;;;;;;5005881;28;20372;-88
2022/05/30 13:33:47;;;;;;;;;;;32.60;21.70;;;;;;5011665;28;20016;-87
2022/05/30 13:36:18;;;;;;;;;;;32.50;21.80;;;;;;4990594;28;19928;-88
2022/05/30 13:38:45;;;;;;;;;;;32.40;21.70;;;;;;5010316;28;20024;-88
2022/05/30 13:41:23;;;;;;;;;;;32.30;21.30;;;;;;5013220;28;19910;-89
2022/05/30 13:43:53;;;;;;;;;;;32.10;20.40;;;;;;5015115;28;19996;-88
2022/05/30 13:46:26;;;;;;;;;;;32.40;21.10;;;;;;5006410;28;19913;-86
2022/05/30 13:48:52;;;;;;;;;;;32.50;21.10;;;;;;5007225;28;19967;-88
2022/05/30 13:51:22;;;;;;;;;;;32.50;21.50;;;;;;4989337;28;19917;-88
2022/05/30 13:53:49;;;;;;;;;;;32.40;21.70;;;;;;5009791;28;19926;-87
2022/05/30 13:56:18;;;;;;;;;;;32.20;20.50;;;;;;5019156;28;19928;-88
2022/05/30 13:58:46;;;;;;;;;;;31.80;21.00;;;;;;5032208;28;19968;-87
2022/05/30 14:01:18;;;;;;;;;;;31.80;21.70;;;;;;5032797;28;19925;-88
2022/05/30 14:03:46;;;;;;;;;;;31.80;21.60;;;;;;5034735;28;19918;-88
2022/05/30 14:06:41;;;;;;;;;;;31.90;21.80;;;;;;5028169;28;19987;-87
2022/05/30 14:09:08;;;;;;;;;;;31.90;21.70;;;;;;5019634;28;19964;-88
2022/05/30 14:11:36;;;;;;;;;;;32.00;21.80;;;;;;5033074;28;19956;-88
2022/05/30 14:14:03;;;;;;;;;;;32.10;21.80;;;;;;5029910;28;20396;-88
2022/05/30 14:16:35;;;;;;;;;;;32.20;21.80;;;;;;5029105;28;20600;-87
2022/05/30 14:19:09;;;;;;;;;;;32.30;21.50;;;;;;5015234;28;20288;-87
2022/05/30 14:21:36;;;;;;;;;;;32.30;21.70;;;;;;5031983;28;19913;-87
2022/05/30 14:24:17;;;;;;;;;;;32.30;21.40;;;;;;5029287;28;19918;-88
2022/05/30 14:26:43;;;;;;;;;;;32.20;21.00;;;;;;5027286;28;19913;-87
2022/05/30 14:29:21;;;;;;;;;;;31.90;19.60;;;;;;5030579;28;19925;-88
2022/05/30 14:31:59;;;;;;;;;;;31.60;20.10;;;;;;5026101;28;19921;-88
2022/05/30 14:34:32;;;;;;;;;;;31.40;20.50;;;;;;5013819;28;19929;-87
2022/05/30 14:36:58;;;;;;;;;;;31.30;20.50;;;;;;5029511;28;19925;-88
2022/05/30 14:39:25;;;;;;;;;;;31.00;20.60;;;;;;5032176;28;19918;-88
2022/05/30 14:42:05;;;;;;;;;;;30.90;20.90;;;;;;5028271;28;19913;-87
2022/05/30 14:44:35;;;;;;;;;;;30.80;21.20;;;;;;5015635;28;19967;-87
2022/05/30 14:47:07;;;;;;;;;;;30.80;21.30;;;;;;5029819;28;19952;-88